Time;durP1;ratioP1;P1;durP2;ratioP2;P2;SDS_P1;SDS_P2;PMS_P1;PMS_P2;Temp;Humidity;BMP_temperature;BMP_pressure;BME280_temperature;BME280_humidity;BME280_pressure;Samples;Min_cycle;Max_cycle;Signal;HPM_P1;HPM_P2
2021/10/06 00:00:58;;;;;;;1.70;1.58;;;11.00;84.00;;;;;;5009310;28;20196;-72
2021/10/06 00:03:24;;;;;;;1.03;1.03;;;;;;;;;;5008991;28;20184;-72
2021/10/06 00:05:50;;;;;;;4.22;1.80;;;10.90;83.90;;;;;;5013099;28;20681;-71
2021/10/06 00:08:15;;;;;;;1.80;1.70;;;10.90;84.40;;;;;;5014573;28;20187;-71
2021/10/06 00:10:41;;;;;;;1.37;1.37;;;10.90;84.40;;;;;;5005804;28;20188;-71
2021/10/06 00:13:07;;;;;;;1.93;1.83;;;10.90;83.90;;;;;;5009538;28;20670;-72
2021/10/06 00:15:33;;;;;;;2.00;1.20;;;10.90;84.00;;;;;;5012847;28;20247;-72
2021/10/06 00:17:59;;;;;;;1.10;1.10;;;10.90;84.40;;;;;;5011160;28;20180;-72
2021/10/06 00:20:25;;;;;;;2.08;1.98;;;10.90;84.40;;;;;;5005066;28;20196;-72
2021/10/06 00:22:51;;;;;;;1.40;1.40;;;10.90;84.80;;;;;;5008756;28;20643;-72
2021/10/06 00:25:17;;;;;;;2.10;1.57;;;10.80;84.90;;;;;;5015999;28;20208;-72
2021/10/06 00:27:42;;;;;;;1.40;1.30;;;10.90;84.50;;;;;;5014473;28;20177;-73
2021/10/06 00:30:09;;;;;;;2.50;1.80;;;10.90;84.50;;;;;;5007859;28;20388;-73
2021/10/06 00:32:35;;;;;;;3.67;1.40;;;10.90;84.50;;;;;;5013959;28;20308;-72
2021/10/06 00:35:01;;;;;;;1.80;1.10;;;;;;;;;;5013581;28;20647;-73
2021/10/06 00:37:26;;;;;;;2.92;1.33;;;10.80;85.00;;;;;;5021820;28;20184;-72
2021/10/06 00:39:52;;;;;;;16.75;1.73;;;;;;;;;;5010729;28;20658;-73
2021/10/06 00:42:18;;;;;;;1.67;0.93;;;10.90;84.50;;;;;;5008663;28;20264;-72
2021/10/06 00:44:44;;;;;;;4.30;2.07;;;10.80;85.00;;;;;;5005084;28;20287;-71
2021/10/06 00:47:12;;;;;;;2.00;1.40;;;10.80;84.80;;;;;;5008102;28;20211;-72
2021/10/06 00:49:40;;;;;;;1.10;1.10;;;10.90;85.10;;;;;;5009325;28;20579;-71
2021/10/06 00:52:06;;;;;;;1.67;1.50;;;10.80;85.00;;;;;;5012089;28;20754;-71
2021/10/06 00:54:31;;;;;;;1.30;1.30;;;10.80;85.30;;;;;;5006093;28;20200;-72
2021/10/06 00:56:57;;;;;;;1.90;1.23;;;;;;;;;;5007226;28;20185;-72
2021/10/06 00:59:23;;;;;;;3.23;1.40;;;10.90;84.50;;;;;;5013510;28;20181;-72
2021/10/06 01:01:49;;;;;;;1.10;1.00;;;;;;;;;;5016901;28;20183;-72
2021/10/06 01:04:15;;;;;;;2.05;1.40;;;10.80;85.40;;;;;;5008014;28;20698;-72
2021/10/06 01:06:40;;;;;;;7.43;1.50;;;10.80;85.50;;;;;;5015452;28;20192;-72
2021/10/06 01:09:06;;;;;;;3.50;1.63;;;10.70;85.90;;;;;;5009525;28;20173;-72
2021/10/06 01:11:32;;;;;;;1.60;1.50;;;;;;;;;;5011676;28;20211;-71
2021/10/06 01:13:58;;;;;;;4.27;1.33;;;10.70;85.80;;;;;;5006765;28;20181;-72
2021/10/06 01:16:24;;;;;;;2.08;1.33;;;10.60;85.80;;;;;;5013494;28;20187;-72
2021/10/06 01:18:50;;;;;;;1.40;1.40;;;10.60;85.90;;;;;;5009822;28;20184;-72
2021/10/06 01:21:17;;;;;;;1.13;1.13;;;10.60;85.70;;;;;;5009744;28;20685;-72
2021/10/06 01:23:46;;;;;;;1.60;1.60;;;10.60;85.60;;;;;;5003225;28;20173;-71
2021/10/06 01:26:18;;;;;;;1.40;1.30;;;10.60;85.50;;;;;;5014940;28;20333;-72
2021/10/06 01:28:45;;;;;;;1.13;1.13;;;10.60;85.60;;;;;;5016138;28;20207;-72
2021/10/06 01:31:11;;;;;;;1.00;1.00;;;10.60;85.60;;;;;;5013787;28;20622;-73
2021/10/06 01:33:37;;;;;;;1.20;1.20;;;10.60;85.60;;;;;;5009639;28;20200;-73
2021/10/06 01:36:03;;;;;;;3.00;1.10;;;10.60;85.50;;;;;;5011221;28;20258;-72
2021/10/06 01:38:29;;;;;;;4.13;1.83;;;10.50;85.90;;;;;;5006211;28;20675;-72
2021/10/06 01:40:55;;;;;;;1.17;1.17;;;;;;;;;;5013265;28;20678;-73
2021/10/06 01:43:20;;;;;;;4.97;1.37;;;10.50;86.00;;;;;;5002807;28;20185;-73
2021/10/06 01:45:46;;;;;;;1.20;1.10;;;10.50;86.00;;;;;;5009335;28;20224;-73
2021/10/06 01:48:13;;;;;;;2.37;1.20;;;10.40;86.00;;;;;;5013813;28;20200;-73
2021/10/06 01:50:41;;;;;;;1.00;1.00;;;10.40;86.40;;;;;;5009667;28;20215;-72
2021/10/06 01:53:11;;;;;;;1.20;1.20;;;10.40;86.90;;;;;;5010144;28;20187;-73
2021/10/06 01:55:39;;;;;;;3.80;1.00;;;10.40;86.40;;;;;;5010568;28;20196;-73
2021/10/06 01:58:10;;;;;;;1.77;1.20;;;10.30;86.60;;;;;;5007274;28;20215;-72
2021/10/06 02:00:38;;;;;;;1.10;1.10;;;10.30;86.60;;;;;;5010611;28;20185;-71
2021/10/06 02:03:03;;;;;;;1.00;0.80;;;10.40;86.60;;;;;;5009307;28;20254;-72
2021/10/06 02:05:33;;;;;;;1.20;1.20;;;10.30;87.00;;;;;;5010805;28;20228;-72
2021/10/06 02:08:03;;;;;;;1.40;1.30;;;10.40;86.80;;;;;;5018851;28;20176;-72
2021/10/06 02:10:29;;;;;;;1.20;1.20;;;10.30;87.00;;;;;;5010807;28;20634;-72
2021/10/06 02:12:55;;;;;;;1.43;1.33;;;10.30;86.90;;;;;;5012096;28;20700;-72
2021/10/06 02:15:20;;;;;;;3.30;1.33;;;10.30;86.80;;;;;;5014088;28;20267;-72
2021/10/06 02:17:46;;;;;;;1.83;1.13;;;10.40;86.70;;;;;;5013815;28;20287;-73
2021/10/06 02:20:12;;;;;;;0.80;0.80;;;10.40;86.70;;;;;;5008395;28;20192;-69
2021/10/06 02:22:38;;;;;;;0.97;0.97;;;10.40;86.60;;;;;;5015060;28;20182;-70
2021/10/06 02:25:04;;;;;;;1.10;1.10;;;10.40;86.60;;;;;;5012241;28;20693;-71
2021/10/06 02:27:30;;;;;;;1.40;1.27;;;10.30;86.80;;;;;;5012514;28;20327;-71
2021/10/06 02:29:56;;;;;;;1.10;1.07;;;10.30;86.90;;;;;;5014219;28;20693;-71
2021/10/06 02:32:22;;;;;;;1.93;1.10;;;10.30;86.70;;;;;;5010727;28;20192;-70
2021/10/06 02:34:47;;;;;;;1.33;1.33;;;10.30;86.80;;;;;;5011640;28;20243;-71
2021/10/06 02:37:13;;;;;;;1.20;1.20;;;10.30;87.00;;;;;;5016135;28;20255;-72
2021/10/06 02:39:40;;;;;;;1.73;1.63;;;10.30;87.00;;;;;;5016947;28;20901;-69
2021/10/06 02:42:05;;;;;;;1.40;1.27;;;10.30;87.10;;;;;;5014760;28;20203;-70
2021/10/06 02:44:31;;;;;;;1.37;1.27;;;10.20;86.90;;;;;;5012043;28;20236;-70
2021/10/06 02:46:57;;;;;;;1.43;1.33;;;10.20;87.20;;;;;;5005796;28;20308;-70
2021/10/06 02:49:22;;;;;;;2.83;1.47;;;10.20;87.50;;;;;;5012235;28;20220;-70
2021/10/06 02:51:48;;;;;;;1.63;1.30;;;10.20;87.40;;;;;;5010547;28;20180;-69
2021/10/06 02:54:14;;;;;;;1.27;1.20;;;;;;;;;;5014966;28;20250;-70
2021/10/06 02:56:40;;;;;;;1.83;1.67;;;10.20;87.60;;;;;;5017205;28;20757;-71
2021/10/06 02:59:06;;;;;;;1.60;1.50;;;10.20;87.80;;;;;;5011541;28;20180;-69
2021/10/06 03:01:31;;;;;;;2.83;1.80;;;10.20;87.90;;;;;;5018669;28;20184;-69
2021/10/06 03:03:57;;;;;;;2.50;1.90;;;10.20;88.20;;;;;;5017376;28;20181;-69
2021/10/06 03:06:23;;;;;;;1.40;1.33;;;10.20;88.00;;;;;;5017055;28;20181;-70
2021/10/06 03:08:48;;;;;;;6.27;2.00;;;10.10;88.10;;;;;;5014216;28;20188;-70
2021/10/06 03:11:14;;;;;;;1.23;1.23;;;10.10;88.20;;;;;;5018949;28;20272;-71
2021/10/06 03:13:40;;;;;;;2.03;1.47;;;10.10;88.40;;;;;;5014792;28;20204;-69
2021/10/06 03:16:05;;;;;;;2.20;1.60;;;10.00;88.70;;;;;;5013441;28;20250;-71
2021/10/06 03:18:31;;;;;;;2.03;1.53;;;10.00;88.80;;;;;;5012989;28;20181;-69
2021/10/06 03:20:58;;;;;;;5.47;1.90;;;10.00;88.60;;;;;;5014997;28;20188;-69
2021/10/06 03:23:24;;;;;;;1.77;1.67;;;9.90;88.50;;;;;;5010929;28;20181;-68
2021/10/06 03:25:50;;;;;;;1.67;1.50;;;9.90;88.90;;;;;;5010956;28;20208;-68
2021/10/06 03:28:17;;;;;;;5.97;2.33;;;9.90;88.70;;;;;;5015938;28;20199;-70
2021/10/06 03:30:43;;;;;;;0.87;0.87;;;9.80;88.90;;;;;;5014932;28;20195;-69
2021/10/06 03:33:09;;;;;;;1.73;1.63;;;9.80;88.80;;;;;;5013870;28;20204;-71
2021/10/06 03:35:34;;;;;;;4.23;1.73;;;9.80;89.10;;;;;;5015014;28;20197;-71
2021/10/06 03:38:00;;;;;;;2.27;2.07;;;;;;;;;;5012249;28;20185;-71
2021/10/06 03:40:26;;;;;;;1.57;1.53;;;;;;;;;;5009764;28;20192;-71
2021/10/06 03:42:52;;;;;;;1.93;1.70;;;9.80;89.10;;;;;;5010647;28;20239;-71
2021/10/06 03:45:18;;;;;;;1.60;1.50;;;9.80;89.20;;;;;;5011941;28;20698;-71
2021/10/06 03:47:44;;;;;;;2.10;1.80;;;9.80;89.20;;;;;;5011696;28;20181;-71
2021/10/06 03:50:12;;;;;;;1.97;1.70;;;9.80;89.10;;;;;;5012652;28;20189;-70
2021/10/06 03:52:38;;;;;;;3.70;1.53;;;9.80;89.30;;;;;;5009470;28;20185;-69
2021/10/06 03:55:08;;;;;;;1.93;1.83;;;9.80;89.20;;;;;;5014720;28;20197;-69
2021/10/06 03:57:34;;;;;;;3.03;1.70;;;9.70;89.30;;;;;;5015181;28;20188;-70
2021/10/06 04:00:01;;;;;;;1.60;1.53;;;9.70;89.20;;;;;;5006394;28;20189;-70
2021/10/06 04:02:26;;;;;;;1.50;1.40;;;9.70;89.20;;;;;;5015141;28;20181;-70
2021/10/06 04:04:52;;;;;;;2.33;1.60;;;9.60;89.40;;;;;;5013985;28;20209;-70
2021/10/06 04:07:18;;;;;;;1.97;1.77;;;9.60;89.40;;;;;;5011353;28;20647;-70
2021/10/06 04:09:47;;;;;;;1.53;1.47;;;9.50;89.90;;;;;;5012259;28;20223;-71
2021/10/06 04:12:13;;;;;;;3.40;2.10;;;9.50;90.00;;;;;;5013648;28;20220;-71
2021/10/06 04:14:39;;;;;;;2.53;2.33;;;9.50;89.90;;;;;;5013542;28;20219;-69
2021/10/06 04:17:04;;;;;;;1.77;1.77;;;9.50;90.00;;;;;;5017729;28;20185;-70
2021/10/06 04:19:30;;;;;;;1.90;1.90;;;9.50;90.30;;;;;;5012495;28;20681;-69
2021/10/06 04:21:56;;;;;;;9.60;2.07;;;9.50;90.10;;;;;;5010972;28;20293;-70
2021/10/06 04:24:21;;;;;;;4.13;2.47;;;9.50;90.10;;;;;;5009135;28;20241;-71
2021/10/06 04:26:47;;;;;;;2.17;2.07;;;9.50;90.40;;;;;;5009118;28;20189;-68
2021/10/06 04:29:13;;;;;;;2.73;2.57;;;9.40;90.80;;;;;;5009670;28;20181;-67
2021/10/06 04:31:39;;;;;;;4.73;2.17;;;;;;;;;;5014297;28;20559;-70
2021/10/06 04:34:05;;;;;;;5.60;2.73;;;;;;;;;;5010676;28;20185;-69
2021/10/06 04:36:30;;;;;;;2.03;1.77;;;9.40;90.40;;;;;;5010794;28;20635;-68
2021/10/06 04:38:56;;;;;;;3.30;2.27;;;9.40;90.50;;;;;;5007794;28;20195;-68
2021/10/06 04:41:22;;;;;;;3.03;2.17;;;9.40;91.00;;;;;;5004450;28;20216;-71
2021/10/06 04:43:47;;;;;;;3.87;2.23;;;9.40;91.00;;;;;;5011008;28;20264;-69
2021/10/06 04:46:13;;;;;;;6.70;2.93;;;9.40;91.00;;;;;;5012410;28;20253;-70
2021/10/06 04:48:39;;;;;;;3.23;2.37;;;;;;;;;;5013847;28;20181;-70
2021/10/06 04:51:05;;;;;;;2.33;2.10;;;;;;;;;;5017971;28;20238;-69
2021/10/06 04:53:31;;;;;;;1.93;1.83;;;9.40;91.20;;;;;;5013895;28;20626;-69
2021/10/06 04:55:57;;;;;;;2.63;2.43;;;;;;;;;;5012223;28;20275;-70
2021/10/06 04:58:23;;;;;;;2.70;2.50;;;9.40;91.20;;;;;;5015841;28;20180;-71
2021/10/06 05:00:48;;;;;;;6.53;2.60;;;9.40;91.40;;;;;;5012931;28;20186;-72
2021/10/06 05:03:15;;;;;;;2.60;2.37;;;9.40;91.10;;;;;;5010710;28;20183;-68
2021/10/06 05:05:42;;;;;;;4.00;2.03;;;9.50;91.00;;;;;;5012220;28;20208;-68
2021/10/06 05:08:08;;;;;;;5.30;2.60;;;9.50;91.10;;;;;;5010567;28;20181;-70
2021/10/06 05:10:35;;;;;;;4.73;3.03;;;9.50;91.10;;;;;;5011787;28;20259;-68
2021/10/06 05:13:01;;;;;;;2.93;2.57;;;9.60;91.40;;;;;;5014843;28;20247;-72
2021/10/06 05:15:27;;;;;;;2.53;2.37;;;9.70;91.30;;;;;;5009649;28;20192;-71
2021/10/06 05:17:53;;;;;;;3.20;2.87;;;9.60;91.10;;;;;;5010721;28;20253;-72
2021/10/06 05:20:19;;;;;;;2.90;2.70;;;9.70;91.10;;;;;;5007828;28;20204;-73
2021/10/06 05:22:44;;;;;;;4.93;2.80;;;9.70;91.20;;;;;;5018063;28;20180;-71
2021/10/06 05:25:10;;;;;;;3.20;2.97;;;9.70;91.00;;;;;;5011455;28;20310;-72
2021/10/06 05:27:36;;;;;;;2.47;2.27;;;9.70;90.90;;;;;;5014163;28;20208;-72
2021/10/06 05:30:05;;;;;;;5.53;3.77;;;9.80;91.10;;;;;;5012497;28;20176;-71
2021/10/06 05:32:31;;;;;;;3.50;3.20;;;9.80;91.10;;;;;;5011057;28;20690;-71
2021/10/06 05:34:57;;;;;;;3.30;3.10;;;9.90;90.70;;;;;;5005326;28;20196;-71
2021/10/06 05:37:23;;;;;;;2.87;2.60;;;10.00;90.50;;;;;;5005221;28;20830;-72
2021/10/06 05:39:48;;;;;;;3.27;2.83;;;10.00;90.30;;;;;;5009070;28;20246;-73
2021/10/06 05:42:14;;;;;;;3.47;3.20;;;10.10;90.20;;;;;;5014034;28;20183;-73
2021/10/06 05:44:40;;;;;;;8.50;3.63;;;10.30;90.10;;;;;;5022020;28;20203;-73
2021/10/06 05:47:06;;;;;;;4.40;2.77;;;10.30;90.10;;;;;;5016152;28;20188;-73
2021/10/06 05:49:31;;;;;;;3.87;3.27;;;10.40;89.90;;;;;;5017512;28;20684;-72
2021/10/06 05:51:57;;;;;;;3.10;2.90;;;10.50;89.70;;;;;;5023124;28;20180;-71
2021/10/06 05:54:23;;;;;;;3.53;3.20;;;10.50;89.50;;;;;;5020820;28;20192;-73
2021/10/06 05:56:48;;;;;;;3.20;2.80;;;10.60;89.30;;;;;;5021551;28;20359;-73
2021/10/06 05:59:14;;;;;;;6.87;3.50;;;;;;;;;;5018873;28;20188;-73
2021/10/06 06:01:40;;;;;;;4.00;3.63;;;10.80;88.80;;;;;;5022589;28;20183;-74
2021/10/06 06:04:06;;;;;;;5.07;3.73;;;;;;;;;;5017947;28;20623;-74
2021/10/06 06:06:32;;;;;;;2.80;2.60;;;;;;;;;;5021616;28;20179;-73
2021/10/06 06:08:58;;;;;;;3.03;2.93;;;;;;;;;;5016988;28;20184;-73
2021/10/06 06:11:26;;;;;;;7.13;3.30;;;;;;;;;;5018370;28;20327;-73
2021/10/06 06:13:52;;;;;;;10.67;3.47;;;11.10;88.50;;;;;;5016845;28;20237;-73
2021/10/06 06:16:18;;;;;;;4.00;3.60;;;11.20;88.10;;;;;;5022762;28;20266;-73
2021/10/06 06:18:45;;;;;;;3.93;3.23;;;11.30;87.80;;;;;;5018685;28;20213;-73
2021/10/06 06:21:11;;;;;;;3.20;2.93;;;11.40;87.90;;;;;;5021902;28;20660;-71
2021/10/06 06:23:37;;;;;;;5.03;3.57;;;11.30;87.20;;;;;;5018011;28;20180;-72
2021/10/06 06:26:02;;;;;;;2.90;2.70;;;11.40;87.20;;;;;;5018012;28;20209;-72
2021/10/06 06:28:29;;;;;;;3.30;2.57;;;11.40;87.10;;;;;;5019781;28;20209;-71
2021/10/06 06:30:54;;;;;;;3.95;3.65;;;11.50;87.40;;;;;;5023244;28;20772;-73
2021/10/06 06:33:20;;;;;;;3.87;3.33;;;11.50;86.40;;;;;;5015835;28;20267;-73
2021/10/06 06:35:46;;;;;;;3.85;3.30;;;;;;;;;;5022211;28;20266;-73
2021/10/06 06:38:12;;;;;;;3.58;2.80;;;11.60;86.80;;;;;;5021174;28;20176;-73
2021/10/06 06:40:41;;;;;;;3.47;3.17;;;;;;;;;;5021863;28;20179;-73
2021/10/06 06:43:11;;;;;;;9.50;3.37;;;11.80;86.40;;;;;;5016897;28;20208;-72
2021/10/06 06:45:37;;;;;;;13.17;3.77;;;11.90;86.10;;;;;;5020019;28;20883;-72
2021/10/06 06:48:03;;;;;;;3.95;3.70;;;12.00;85.80;;;;;;5017149;28;20180;-73
2021/10/06 06:50:29;;;;;;;3.38;3.17;;;12.10;85.40;;;;;;5017837;28;20659;-72
2021/10/06 06:52:55;;;;;;;3.55;3.30;;;12.20;85.60;;;;;;5018652;28;20241;-73
2021/10/06 06:55:21;;;;;;;3.63;3.33;;;12.40;85.40;;;;;;5015173;28;20199;-73
2021/10/06 06:57:47;;;;;;;3.97;3.67;;;12.50;84.70;;;;;;5016532;28;20348;-73
2021/10/06 07:00:13;;;;;;;3.67;3.35;;;12.50;84.70;;;;;;5018206;28;20185;-73
2021/10/06 07:02:38;;;;;;;4.22;2.90;;;12.60;84.20;;;;;;5021892;28;20177;-73
2021/10/06 07:05:05;;;;;;;3.95;3.70;;;12.60;83.80;;;;;;5015737;28;20334;-73
2021/10/06 07:07:30;;;;;;;4.25;3.38;;;12.60;84.00;;;;;;5016200;28;20234;-73
2021/10/06 07:09:56;;;;;;;4.20;3.90;;;12.70;83.90;;;;;;5018085;28;20742;-73
2021/10/06 07:12:22;;;;;;;3.42;3.20;;;12.80;83.80;;;;;;5018330;28;20198;-73
2021/10/06 07:14:50;;;;;;;3.67;3.40;;;12.90;83.40;;;;;;5015206;28;20185;-73
2021/10/06 07:17:16;;;;;;;3.42;3.17;;;13.00;83.10;;;;;;5015256;28;20192;-73
2021/10/06 07:19:42;;;;;;;3.17;3.00;;;13.10;82.30;;;;;;5016818;28;21893;-73
2021/10/06 07:22:08;;;;;;;4.18;3.20;;;13.10;82.00;;;;;;5012659;28;20191;-73
2021/10/06 07:24:34;;;;;;;4.18;3.85;;;13.10;82.30;;;;;;5014430;28;20216;-73
2021/10/06 07:27:00;;;;;;;6.05;3.53;;;13.30;82.90;;;;;;5015418;28;20184;-73
2021/10/06 07:29:26;;;;;;;4.00;3.63;;;13.50;82.40;;;;;;5019116;28;20211;-73
2021/10/06 07:31:52;;;;;;;4.18;3.30;;;13.90;81.00;;;;;;5018753;28;20216;-73
2021/10/06 07:34:18;;;;;;;5.35;4.28;;;14.20;80.50;;;;;;5012939;28;20181;-72
2021/10/06 07:36:43;;;;;;;3.55;3.25;;;14.20;80.10;;;;;;5017255;28;20168;-71
2021/10/06 07:39:10;;;;;;;3.97;3.72;;;14.80;78.60;;;;;;5014532;28;20184;-73
2021/10/06 07:41:36;;;;;;;4.65;4.25;;;15.10;77.80;;;;;;5015978;28;20180;-74
2021/10/06 07:44:02;;;;;;;3.65;3.35;;;15.60;76.60;;;;;;5013726;28;20234;-73
2021/10/06 07:46:28;;;;;;;7.18;4.28;;;15.90;75.00;;;;;;5011614;28;20274;-73
2021/10/06 07:48:54;;;;;;;4.47;4.15;;;16.00;74.90;;;;;;5015729;28;20266;-73
2021/10/06 07:51:21;;;;;;;7.07;4.28;;;16.20;75.00;;;;;;5015779;28;20177;-73
2021/10/06 07:53:47;;;;;;;3.97;3.78;;;16.60;75.50;;;;;;5014582;28;20578;-73
2021/10/06 07:56:13;;;;;;;4.35;4.00;;;17.20;74.20;;;;;;5015265;28;20208;-72
2021/10/06 07:58:39;;;;;;;7.40;4.90;;;17.90;72.90;;;;;;5013545;28;20196;-72
2021/10/06 08:01:05;;;;;;;5.25;4.35;;;18.00;72.70;;;;;;5016951;28;20180;-72
2021/10/06 08:03:30;;;;;;;4.88;4.45;;;18.70;71.90;;;;;;5017590;28;20180;-73
2021/10/06 08:05:57;;;;;;;5.50;5.03;;;20.20;68.20;;;;;;5015726;28;20204;-73
2021/10/06 08:08:28;;;;;;;6.22;5.07;;;20.30;67.60;;;;;;5012888;28;20184;-73
2021/10/06 08:10:55;;;;;;;6.40;5.70;;;20.90;66.10;;;;;;5017994;28;20185;-73
2021/10/06 08:13:21;;;;;;;6.40;5.90;;;21.30;65.10;;;;;;5017223;28;20202;-73
2021/10/06 08:15:48;;;;;;;6.22;5.70;;;21.70;64.30;;;;;;5009641;28;20185;-73
2021/10/06 08:18:16;;;;;;;5.57;5.07;;;22.20;62.90;;;;;;5011878;28;20196;-72
2021/10/06 08:21:02;;;;;;;6.57;5.20;;;22.70;62.50;;;;;;5017759;28;20181;-72
2021/10/06 08:23:30;;;;;;;7.05;6.07;;;23.00;61.20;;;;;;5011556;28;20275;-72
2021/10/06 08:25:56;;;;;;;6.25;5.75;;;23.30;61.20;;;;;;5015646;28;21082;-74
2021/10/06 08:28:22;;;;;;;5.80;5.30;;;23.40;60.10;;;;;;5014593;28;20243;-72
2021/10/06 08:30:48;;;;;;;7.00;6.30;;;23.70;59.80;;;;;;5016396;28;20185;-72
2021/10/06 08:33:14;;;;;;;6.55;5.95;;;24.10;59.70;;;;;;5010757;28;20198;-73
2021/10/06 08:35:40;;;;;;;7.38;6.30;;;24.40;59.30;;;;;;5016232;28;20415;-72
2021/10/06 08:38:06;;;;;;;6.97;6.38;;;25.20;57.70;;;;;;5011446;28;20191;-73
2021/10/06 08:40:34;;;;;;;10.23;6.75;;;25.70;56.60;;;;;;5019668;28;20180;-73
2021/10/06 08:43:02;;;;;;;11.00;6.30;;;26.20;56.30;;;;;;5014495;28;20181;-74
2021/10/06 08:45:27;;;;;;;11.52;7.00;;;26.70;55.20;;;;;;5014641;28;21064;-73
2021/10/06 08:47:53;;;;;;;7.68;7.00;;;27.00;54.90;;;;;;5017088;28;20259;-73
2021/10/06 08:50:20;;;;;;;5.97;5.57;;;27.40;53.50;;;;;;5010137;28;20177;-73
2021/10/06 08:52:50;;;;;;;5.75;5.35;;;27.20;52.20;;;;;;5011606;28;20687;-73
2021/10/06 08:55:18;;;;;;;5.82;5.43;;;27.20;52.20;;;;;;5017725;28;20182;-73
2021/10/06 08:57:44;;;;;;;7.28;5.68;;;26.40;54.30;;;;;;5008247;28;20614;-73
2021/10/06 09:00:11;;;;;;;5.88;5.38;;;26.50;53.70;;;;;;5014328;28;20232;-73
2021/10/06 09:02:39;;;;;;;6.15;5.68;;;26.80;54.10;;;;;;5011768;28;20670;-73
2021/10/06 09:05:06;;;;;;;5.70;5.20;;;27.20;53.30;;;;;;5015552;28;20604;-73
2021/10/06 09:07:31;;;;;;;9.77;5.45;;;27.20;53.30;;;;;;5011257;28;20177;-73
2021/10/06 09:10:12;;;;;;;6.10;5.60;;;27.30;52.20;;;;;;5019372;28;20191;-73
2021/10/06 09:12:40;;;;;;;5.75;5.28;;;27.00;52.80;;;;;;5012627;28;20266;-73
2021/10/06 09:15:10;;;;;;;6.93;5.68;;;27.50;52.50;;;;;;5013583;28;20204;-73
2021/10/06 09:17:38;;;;;;;5.82;5.35;;;27.60;52.50;;;;;;5017384;28;20235;-73
2021/10/06 09:20:10;;;;;;;6.90;6.03;;;27.70;52.60;;;;;;5014999;28;20264;-73
2021/10/06 09:22:35;;;;;;;6.55;5.40;;;27.80;52.20;;;;;;5019199;28;20191;-72
2021/10/06 09:25:05;;;;;;;5.68;5.18;;;27.80;51.50;;;;;;5008046;28;20216;-72
2021/10/06 09:27:34;;;;;;;5.65;5.15;;;27.50;51.70;;;;;;5012166;28;20331;-72
2021/10/06 09:30:06;;;;;;;5.88;5.47;;;27.50;51.60;;;;;;5001465;28;20266;-72
2021/10/06 09:32:41;;;;;;;7.00;5.50;;;27.30;51.80;;;;;;5008728;28;20181;-72
2021/10/06 09:35:25;;;;;;;5.60;5.20;;;27.30;51.70;;;;;;5002974;28;20188;-72
2021/10/06 09:37:56;;;;;;;5.80;5.40;;;27.10;52.20;;;;;;5009030;28;20177;-72
2021/10/06 09:40:28;;;;;;;6.00;5.55;;;27.30;52.10;;;;;;5008452;28;20188;-72
2021/10/06 09:42:56;;;;;;;5.80;5.35;;;27.40;52.70;;;;;;5012716;28;20621;-72
2021/10/06 09:45:53;;;;;;;6.07;5.65;;;27.70;52.20;;;;;;5008875;28;20212;-72
2021/10/06 09:48:34;;;;;;;7.57;5.50;;;27.90;51.30;;;;;;5009072;28;20584;-72
2021/10/06 09:51:06;;;;;;;6.25;5.75;;;28.00;50.20;;;;;;5007821;28;21083;-73
2021/10/06 09:53:32;;;;;;;8.82;6.22;;;28.10;51.50;;;;;;5010144;28;20182;-73
2021/10/06 09:56:04;;;;;;;5.18;4.80;;;28.30;50.70;;;;;;5012033;28;20736;-73
2021/10/06 09:58:30;;;;;;;6.30;5.72;;;28.00;51.00;;;;;;5006901;28;20668;-73
2021/10/06 10:00:57;;;;;;;5.55;5.13;;;28.00;51.00;;;;;;5009595;28;20181;-72
2021/10/06 10:03:23;;;;;;;6.35;5.72;;;28.10;51.40;;;;;;5013979;28;20663;-72
2021/10/06 10:05:49;;;;;;;6.40;5.75;;;28.10;49.80;;;;;;5009620;28;20244;-73
2021/10/06 10:08:15;;;;;;;5.80;5.43;;;27.30;50.70;;;;;;5012464;28;20709;-73
2021/10/06 10:10:41;;;;;;;6.15;5.55;;;;;;;;;;5015958;28;20185;-73
2021/10/06 10:13:07;;;;;;;7.05;5.28;;;26.70;51.90;;;;;;5016709;28;20208;-72
2021/10/06 10:15:34;;;;;;;6.03;5.50;;;26.40;51.80;;;;;;5009436;28;20271;-72
2021/10/06 10:18:03;;;;;;;6.68;5.90;;;26.40;51.80;;;;;;5017562;28;20186;-73
2021/10/06 10:20:33;;;;;;;5.38;5.00;;;26.40;53.30;;;;;;5010791;28;20212;-72
2021/10/06 10:23:04;;;;;;;5.13;4.85;;;26.40;53.10;;;;;;5013853;28;20181;-72
2021/10/06 10:25:38;;;;;;;5.90;5.47;;;26.60;52.20;;;;;;5013757;28;20218;-73
2021/10/06 10:28:12;;;;;;;5.47;5.15;;;26.70;52.00;;;;;;5008737;28;20203;-73
2021/10/06 10:30:40;;;;;;;9.85;5.88;;;26.70;52.70;;;;;;5019079;28;20184;-72
2021/10/06 10:33:07;;;;;;;5.90;5.40;;;26.80;53.10;;;;;;5009264;28;20186;-73
2021/10/06 10:35:38;;;;;;;6.47;5.88;;;27.20;51.70;;;;;;4994277;28;20274;-74
2021/10/06 10:38:16;;;;;;;5.40;4.88;;;27.00;51.50;;;;;;4994382;28;20187;-73
2021/10/06 10:40:47;;;;;;;5.97;5.47;;;26.80;52.00;;;;;;4990398;28;20810;-72
2021/10/06 10:43:21;;;;;;;7.05;5.28;;;26.50;52.50;;;;;;4993672;28;20188;-72
2021/10/06 10:46:11;;;;;;;7.75;6.03;;;26.20;52.50;;;;;;4995756;28;20215;-72
2021/10/06 10:48:56;;;;;;;5.70;5.20;;;26.10;52.80;;;;;;4992027;28;20183;-72
2021/10/06 10:51:44;;;;;;;5.55;5.22;;;26.10;52.40;;;;;;5006693;28;20200;-72
2021/10/06 10:54:11;;;;;;;8.95;5.50;;;26.00;53.10;;;;;;5000028;28;20200;-72
2021/10/06 10:56:44;;;;;;;7.35;5.68;;;26.30;53.10;;;;;;5004662;28;20184;-73
2021/10/06 10:59:14;;;;;;;6.30;5.82;;;26.60;52.10;;;;;;5005599;28;20323;-73
2021/10/06 11:01:41;;;;;;;6.60;6.05;;;26.70;52.60;;;;;;5005686;28;20219;-73
2021/10/06 11:04:29;;;;;;;5.82;5.45;;;26.80;52.40;;;;;;5007511;28;20181;-73
2021/10/06 11:07:13;;;;;;;8.40;6.03;;;26.90;52.30;;;;;;5007317;28;20200;-72
2021/10/06 11:09:41;;;;;;;5.72;5.38;;;27.10;51.80;;;;;;5011759;28;20195;-71
2021/10/06 11:12:08;;;;;;;6.32;5.85;;;;;;;;;;5007968;28;20577;-72
2021/10/06 11:14:34;;;;;;;5.97;5.47;;;27.90;50.80;;;;;;5011309;28;20212;-72
2021/10/06 11:17:16;;;;;;;6.60;6.05;;;28.00;50.90;;;;;;5016133;28;20189;-72
2021/10/06 11:19:41;;;;;;;7.15;6.40;;;28.20;50.70;;;;;;4999059;28;20181;-72
2021/10/06 11:22:25;;;;;;;6.90;6.30;;;28.30;50.60;;;;;;5004597;28;20185;-73
2021/10/06 11:24:58;;;;;;;8.80;6.47;;;28.30;50.10;;;;;;5016400;28;20225;-72
2021/10/06 11:27:25;;;;;;;6.68;6.15;;;27.90;50.20;;;;;;5011454;28;20207;-73
2021/10/06 11:29:54;;;;;;;6.57;6.03;;;27.40;50.80;;;;;;5013942;28;20201;-71
2021/10/06 11:32:20;;;;;;;7.07;6.57;;;27.30;51.40;;;;;;5005782;28;20200;-72
2021/10/06 11:34:53;;;;;;;8.80;6.40;;;27.20;51.90;;;;;;5003783;28;20181;-72
2021/10/06 11:37:20;;;;;;;8.15;6.10;;;27.20;51.80;;;;;;5001657;28;20272;-72
2021/10/06 11:39:46;;;;;;;6.53;6.03;;;27.20;51.90;;;;;;5006811;28;20193;-72
2021/10/06 11:42:13;;;;;;;10.77;6.90;;;27.30;50.80;;;;;;5008966;28;20255;-72
2021/10/06 11:44:39;;;;;;;6.43;5.97;;;27.10;51.70;;;;;;5006760;28;20217;-71
2021/10/06 11:47:17;;;;;;;6.75;5.97;;;27.00;51.90;;;;;;5010312;28;20199;-71
2021/10/06 11:49:45;;;;;;;8.20;6.45;;;26.80;51.70;;;;;;5015824;28;20184;-71
2021/10/06 11:52:13;;;;;;;6.53;6.03;;;26.80;52.80;;;;;;5005300;28;20177;-72
2021/10/06 11:54:39;;;;;;;6.78;6.18;;;26.90;52.30;;;;;;5009799;28;20751;-72
2021/10/06 11:57:13;;;;;;;6.80;6.07;;;26.90;52.50;;;;;;5003343;28;20242;-72
2021/10/06 11:59:41;;;;;;;7.63;6.10;;;26.90;52.20;;;;;;5012926;28;20188;-72
2021/10/06 12:02:09;;;;;;;6.28;5.88;;;27.00;52.00;;;;;;5013175;28;20181;-72
2021/10/06 12:04:38;;;;;;;8.60;5.78;;;27.10;51.70;;;;;;5012297;28;20216;-72
2021/10/06 12:07:08;;;;;;;6.43;6.00;;;26.80;51.80;;;;;;5012382;28;20263;-72
2021/10/06 12:09:37;;;;;;;7.50;5.65;;;26.70;52.20;;;;;;5017929;28;20176;-72
2021/10/06 12:12:15;;;;;;;7.38;5.57;;;26.80;52.30;;;;;;5019570;28;20184;-71
2021/10/06 12:14:48;;;;;;;6.18;5.78;;;26.80;52.20;;;;;;5007326;28;20200;-72
2021/10/06 12:17:24;;;;;;;5.90;5.53;;;26.50;52.60;;;;;;5016412;28;20664;-71
2021/10/06 12:20:03;;;;;;;6.35;5.85;;;25.60;52.90;;;;;;5014192;28;20257;-71
2021/10/06 12:22:56;;;;;;;6.90;6.30;;;25.00;54.20;;;;;;4996914;28;20193;-73
2021/10/06 12:25:24;;;;;;;7.90;6.63;;;24.50;54.70;;;;;;5012368;28;20255;-71
2021/10/06 12:28:06;;;;;;;10.27;7.63;;;24.20;55.50;;;;;;5014888;28;20259;-72
2021/10/06 12:30:34;;;;;;;7.80;7.03;;;24.10;55.60;;;;;;5015598;28;20226;-73
2021/10/06 12:33:03;;;;;;;8.18;6.38;;;23.90;56.00;;;;;;5011542;28;20520;-73
2021/10/06 12:35:37;;;;;;;7.20;6.55;;;23.70;56.50;;;;;;5015820;28;20208;-72
2021/10/06 12:38:03;;;;;;;7.78;6.55;;;23.50;56.60;;;;;;5012732;28;20580;-71
2021/10/06 12:40:45;;;;;;;6.85;6.03;;;23.10;56.90;;;;;;5007878;28;20198;-72
2021/10/06 12:43:10;;;;;;;6.75;6.10;;;22.50;58.40;;;;;;5011441;28;20698;-72
2021/10/06 12:45:56;;;;;;;6.85;6.15;;;22.70;58.40;;;;;;5008852;28;20205;-73
2021/10/06 12:48:36;;;;;;;6.45;5.85;;;22.70;58.40;;;;;;5013716;28;20192;-72
2021/10/06 12:51:03;;;;;;;5.93;5.50;;;22.90;58.00;;;;;;5008961;28;20204;-73
2021/10/06 12:53:28;;;;;;;5.40;5.03;;;22.90;57.80;;;;;;5004081;28;20685;-72
2021/10/06 12:55:54;;;;;;;4.90;4.60;;;22.90;57.50;;;;;;5012999;28;20180;-73
2021/10/06 12:58:20;;;;;;;7.47;5.10;;;22.70;57.90;;;;;;5014691;28;20189;-72